Time,TemperatureF,DewpointF,PressureIn,WindDirection,WindDirectionDegrees,WindSpeedMPH,WindSpeedGustMPH,Humidity,HourlyPrecipIn,Conditions,Clouds,dailyrainin,SoftwareType,DateUTC
2013-04-19 00:05:00,47.0,39.0,30.21,South,186,6.0,11.0,74,0.00,,,0.00,weatherlink.com 1.10,2013-04-19 04:05:00,
2013-04-19 00:20:00,47.3,39.0,30.20,South,187,3.0,11.0,73,0.00,,,0.00,weatherlink.com 1.10,2013-04-19 04:20:00,
2013-04-19 00:35:00,47.2,39.0,30.18,South,184,4.0,11.0,74,0.00,,,0.00,weatherlink.com 1.10,2013-04-19 04:35:00,
2013-04-19 00:50:00,47.1,40.0,30.17,SE,136,3.0,9.0,76,0.00,,,0.00,weatherlink.com 1.10,2013-04-19 04:50:00,
2013-04-19 01:05:00,47.0,40.0,30.16,SSW,199,7.0,12.0,77,0.00,,,0.00,weatherlink.com 1.10,2013-04-19 05:05:00,
2013-04-19 01:20:00,47.1,40.0,30.15,SSE,152,5.0,9.0,77,0.00,,,0.00,weatherlink.com 1.10,2013-04-19 05:20:00,
2013-04-19 01:35:00,47.1,41.0,30.14,East,82,3.0,8.0,78,0.00,,,0.00,weatherlink.com 1.10,2013-04-19 05:35:00,
2013-04-19 01:51:00,46.7,41.0,30.13,South,184,9.0,11.0,79,0.00,,,0.00,weatherlink.com 1.10,2013-04-19 05:51:00,
2013-04-19 02:06:00,46.7,41.0,30.12,South,182,11.0,12.0,81,0.00,,,0.00,weatherlink.com 1.10,2013-04-19 06:06:00,
2013-04-19 02:21:00,46.7,42.0,30.10,SSW,196,1.0,12.0,82,0.00,,,0.00,weatherlink.com 1.10,2013-04-19 06:21:00,
2013-04-19 02:36:00,46.8,42.0,30.09,SSW,201,8.0,18.0,83,0.00,,,0.00,weatherlink.com 1.10,2013-04-19 06:36:00,
2013-04-19 02:51:00,47.0,42.0,30.08,SW,227,3.0,16.0,84,0.00,,,0.00,weatherlink.com 1.10,2013-04-19 06:51:00,
2013-04-19 03:06:00,47.0,43.0,30.08,West,279,3.0,15.0,85,0.00,,,0.00,weatherlink.com 1.10,2013-04-19 07:06:00,
2013-04-19 03:21:00,46.7,43.0,30.08,SW,224,9.0,18.0,86,0.00,,,0.00,weatherlink.com 1.10,2013-04-19 07:21:00,
2013-04-19 03:51:00,47.4,44.0,30.07,SSW,203,5.0,12.0,89,0.00,,,0.00,weatherlink.com 1.10,2013-04-19 07:51:00,
2013-04-19 04:06:00,47.7,45.0,30.07,SW,215,8.0,17.0,90,0.00,,,0.00,weatherlink.com 1.10,2013-04-19 08:06:00,
2013-04-19 04:21:00,47.9,46.0,30.07,WSW,250,10.0,17.0,91,0.00,,,0.00,weatherlink.com 1.10,2013-04-19 08:21:00,
2013-04-19 04:36:00,47.9,46.0,30.07,West,268,6.0,16.0,92,0.00,,,0.00,weatherlink.com 1.10,2013-04-19 08:36:00,
2013-04-19 04:51:00,47.8,46.0,30.06,SW,229,4.0,10.0,94,0.00,,,0.00,weatherlink.com 1.10,2013-04-19 08:51:00,
2013-04-19 05:06:00,47.8,46.0,30.06,West,268,3.0,13.0,94,0.00,,,0.00,weatherlink.com 1.10,2013-04-19 09:06:00,
2013-04-19 05:21:00,47.9,47.0,30.05,SSW,194,7.0,12.0,95,0.00,,,0.00,weatherlink.com 1.10,2013-04-19 09:21:00,
2013-04-19 05:36:00,48.2,47.0,30.05,West,261,8.0,15.0,95,0.00,,,0.00,weatherlink.com 1.10,2013-04-19 09:36:00,
2013-04-19 05:51:00,48.6,48.0,30.04,SW,223,0.0,7.0,96,0.00,,,0.00,weatherlink.com 1.10,2013-04-19 09:51:00,
2013-04-19 06:06:00,48.8,48.0,30.03,South,186,4.0,10.0,96,0.00,,,0.00,weatherlink.com 1.10,2013-04-19 10:06:00,
2013-04-19 06:21:00,48.3,47.0,30.03,South,181,4.0,12.0,96,0.00,,,0.00,weatherlink.com 1.10,2013-04-19 10:21:00,
2013-04-19 06:36:00,48.1,47.0,30.02,SSW,213,7.0,14.0,96,0.00,,,0.00,weatherlink.com 1.10,2013-04-19 10:36:00,
2013-04-19 06:51:00,48.4,48.0,30.03,SW,214,7.0,10.0,97,0.00,,,0.00,weatherlink.com 1.10,2013-04-19 10:51:00,
2013-04-19 07:06:00,48.8,48.0,30.02,West,268,4.0,10.0,97,0.00,,,0.00,weatherlink.com 1.10,2013-04-19 11:06:00,
2013-04-19 07:21:00,49.2,48.0,30.03,West,259,2.0,8.0,97,0.00,,,0.00,weatherlink.com 1.10,2013-04-19 11:21:00,
2013-04-19 07:36:00,49.4,49.0,30.03,WSW,253,6.0,13.0,97,0.00,,,0.00,weatherlink.com 1.10,2013-04-19 11:36:00,
2013-04-19 07:51:00,49.6,49.0,30.02,WSW,250,4.0,10.0,97,0.00,,,0.00,weatherlink.com 1.10,2013-04-19 11:51:00,
2013-04-19 08:06:00,50.5,50.0,30.02,West,259,10.0,13.0,98,0.00,,,0.00,weatherlink.com 1.10,2013-04-19 12:06:00,
2013-04-19 08:22:00,51.0,50.0,30.01,WSW,257,3.0,11.0,97,0.00,,,0.00,weatherlink.com 1.10,2013-04-19 12:22:00,
2013-04-19 08:37:00,51.6,51.0,30.01,West,263,5.0,9.0,97,0.00,,,0.00,weatherlink.com 1.10,2013-04-19 12:37:00,
2013-04-19 08:52:00,52.1,51.0,30.01,SSW,199,3.0,13.0,97,0.00,,,0.00,weatherlink.com 1.10,2013-04-19 12:52:00,
2013-04-19 09:07:00,52.4,52.0,30.00,SW,229,0.0,11.0,97,0.00,,,0.00,weatherlink.com 1.10,2013-04-19 13:07:00,
2013-04-19 09:22:00,52.7,52.0,30.00,WSW,240,7.0,11.0,97,0.00,,,0.00,weatherlink.com 1.10,2013-04-19 13:22:00,
2013-04-19 09:37:00,53.0,52.0,30.00,South,183,0.0,7.0,96,0.00,,,0.00,weatherlink.com 1.10,2013-04-19 13:37:00,
2013-04-19 09:52:00,53.5,53.0,29.99,WSW,254,0.0,6.0,97,0.00,,,0.00,weatherlink.com 1.10,2013-04-19 13:52:00,
2013-04-19 10:07:00,54.1,53.0,29.99,SSE,163,1.0,6.0,96,0.00,,,0.00,weatherlink.com 1.10,2013-04-19 14:07:00,
2013-04-19 10:22:00,54.4,53.0,29.99,South,173,2.0,6.0,96,0.00,,,0.00,weatherlink.com 1.10,2013-04-19 14:22:00,
2013-04-19 10:37:00,54.8,54.0,29.98,South,175,1.0,8.0,96,0.00,,,0.00,weatherlink.com 1.10,2013-04-19 14:37:00,
2013-04-19 10:52:00,55.2,54.0,29.98,SSW,207,1.0,8.0,96,0.00,,,0.00,weatherlink.com 1.10,2013-04-19 14:52:00,
2013-04-19 11:07:00,56.7,56.0,29.97,West,273,5.0,12.0,96,0.00,,,0.00,weatherlink.com 1.10,2013-04-19 15:07:00,
2013-04-19 11:22:00,57.5,56.0,29.96,SE,133,3.0,7.0,95,0.00,,,0.00,weatherlink.com 1.10,2013-04-19 15:22:00,
2013-04-19 11:37:00,56.6,55.0,29.96,SSW,196,4.0,14.0,93,0.00,,,0.00,weatherlink.com 1.10,2013-04-19 15:37:00,
2013-04-19 11:52:00,56.4,55.0,29.96,SSE,155,2.0,13.0,95,0.00,,,0.00,weatherlink.com 1.10,2013-04-19 15:52:00,
2013-04-19 12:07:00,57.9,56.0,29.95,South,180,15.0,16.0,94,0.00,,,0.00,weatherlink.com 1.10,2013-04-19 16:07:00,
2013-04-19 12:24:00,58.2,56.0,29.94,SSW,210,7.0,14.0,93,0.00,,,0.00,weatherlink.com 1.10,2013-04-19 16:24:00,
2013-04-19 12:37:00,58.6,56.0,29.93,SSE,167,9.0,17.0,92,0.00,,,0.00,weatherlink.com 1.10,2013-04-19 16:37:00,
2013-04-19 13:07:00,58.9,55.0,29.92,SE,132,4.0,13.0,87,0.00,,,0.00,weatherlink.com 1.10,2013-04-19 17:07:00,
2013-04-19 13:22:00,57.1,53.0,29.91,SE,145,8.0,12.0,87,0.00,,,0.00,weatherlink.com 1.10,2013-04-19 17:22:00,
2013-04-19 13:37:00,53.8,51.0,29.90,SE,143,12.0,14.0,89,0.00,,,0.00,weatherlink.com 1.10,2013-04-19 17:37:00,
2013-04-19 13:52:00,53.2,51.0,29.90,SE,132,11.0,17.0,92,0.00,,,0.00,weatherlink.com 1.10,2013-04-19 17:52:00,
2013-04-19 14:07:00,53.3,51.0,29.90,SE,124,9.0,13.0,91,0.00,,,0.00,weatherlink.com 1.10,2013-04-19 18:07:00,
2013-04-19 14:22:00,53.8,52.0,29.89,South,185,4.0,13.0,95,0.00,,,0.00,weatherlink.com 1.10,2013-04-19 18:22:00,
2013-04-19 14:37:00,55.9,53.0,29.88,South,190,5.0,11.0,91,0.00,,,0.00,weatherlink.com 1.10,2013-04-19 18:37:00,
2013-04-19 14:52:00,54.7,52.0,29.86,SE,126,8.0,11.0,90,0.00,,,0.00,weatherlink.com 1.10,2013-04-19 18:52:00,
2013-04-19 15:07:00,55.9,53.0,29.85,SSE,165,7.0,13.0,90,0.00,,,0.00,weatherlink.com 1.10,2013-04-19 19:07:00,
2013-04-19 15:22:00,56.7,55.0,29.85,South,180,5.0,16.0,94,0.00,,,0.00,weatherlink.com 1.10,2013-04-19 19:22:00,
2013-04-19 15:38:00,57.5,55.0,29.84,SE,134,3.0,19.0,92,0.00,,,0.00,weatherlink.com 1.10,2013-04-19 19:38:00,
2013-04-19 15:53:00,57.8,55.0,29.84,SE,138,11.0,12.0,91,0.00,,,0.00,weatherlink.com 1.10,2013-04-19 19:53:00,
2013-04-19 16:08:00,59.2,56.0,29.83,SSW,199,10.0,14.0,89,0.00,,,0.00,weatherlink.com 1.10,2013-04-19 20:08:00,
2013-04-19 16:23:00,59.9,56.0,29.83,SE,132,7.0,15.0,88,0.00,,,0.00,weatherlink.com 1.10,2013-04-19 20:23:00,
2013-04-19 16:38:00,60.3,57.0,29.82,SE,146,2.0,17.0,87,0.00,,,0.00,weatherlink.com 1.10,2013-04-19 20:38:00,
2013-04-19 16:53:00,60.0,57.0,29.82,South,183,8.0,15.0,89,0.00,,,0.00,weatherlink.com 1.10,2013-04-19 20:53:00,
2013-04-19 17:08:00,59.2,56.0,29.82,South,185,13.0,13.0,90,0.00,,,0.00,weatherlink.com 1.10,2013-04-19 21:08:00,
2013-04-19 17:23:00,60.7,58.0,29.81,ESE,119,5.0,8.0,90,0.00,,,0.00,weatherlink.com 1.10,2013-04-19 21:23:00,
2013-04-19 17:38:00,60.6,57.0,29.81,SE,146,16.0,20.0,89,0.00,,,0.00,weatherlink.com 1.10,2013-04-19 21:38:00,
2013-04-19 17:53:00,59.8,57.0,29.80,SSW,196,6.0,16.0,91,0.00,,,0.00,weatherlink.com 1.10,2013-04-19 21:53:00,
2013-04-19 18:08:00,58.7,56.0,29.79,East,92,3.0,23.0,92,0.00,,,0.00,weatherlink.com 1.10,2013-04-19 22:08:00,
2013-04-19 18:23:00,58.7,56.0,29.79,ESE,103,8.0,12.0,92,0.00,,,0.00,weatherlink.com 1.10,2013-04-19 22:23:00,
2013-04-19 18:38:00,59.5,57.0,29.78,South,184,9.0,13.0,92,0.00,,,0.00,weatherlink.com 1.10,2013-04-19 22:38:00,
2013-04-19 18:53:00,59.4,57.0,29.77,SE,144,4.0,17.0,92,0.00,,,0.00,weatherlink.com 1.10,2013-04-19 22:53:00,
2013-04-19 19:08:00,59.7,57.0,29.77,South,184,17.0,17.0,92,0.00,,,0.00,weatherlink.com 1.10,2013-04-19 23:08:00,
2013-04-19 19:23:00,59.0,57.0,29.77,SW,234,8.0,19.0,92,0.00,,,0.00,weatherlink.com 1.10,2013-04-19 23:23:00,
2013-04-19 19:38:00,58.4,56.0,29.77,SSE,159,6.0,20.0,92,0.00,,,0.00,weatherlink.com 1.10,2013-04-19 23:38:00,
2013-04-19 19:53:00,58.3,56.0,29.77,South,184,8.0,15.0,93,0.00,,,0.00,weatherlink.com 1.10,2013-04-19 23:53:00,
2013-04-19 20:08:00,57.9,56.0,29.76,SW,234,4.0,13.0,94,0.00,,,0.00,weatherlink.com 1.10,2013-04-20 00:08:00,
2013-04-19 20:23:00,57.2,56.0,29.76,SSE,164,8.0,13.0,94,0.00,,,0.00,weatherlink.com 1.10,2013-04-20 00:23:00,
2013-04-19 20:38:00,56.4,55.0,29.75,South,178,10.0,14.0,94,0.00,,,0.00,weatherlink.com 1.10,2013-04-20 00:38:00,
2013-04-19 20:53:00,55.0,54.0,29.76,SSE,162,7.0,16.0,95,0.00,,,0.00,weatherlink.com 1.10,2013-04-20 00:53:00,
2013-04-19 21:08:00,54.5,53.0,29.76,South,190,8.0,12.0,96,0.00,,,0.00,weatherlink.com 1.10,2013-04-20 01:08:00,
2013-04-19 21:23:00,56.0,55.0,29.75,SSW,209,3.0,9.0,97,0.00,,,0.00,weatherlink.com 1.10,2013-04-20 01:23:00,
2013-04-19 21:38:00,56.4,56.0,29.74,South,180,13.0,18.0,97,0.00,,,0.00,weatherlink.com 1.10,2013-04-20 01:38:00,
2013-04-19 21:53:00,56.2,55.0,29.74,SW,226,6.0,21.0,97,0.00,,,0.00,weatherlink.com 1.10,2013-04-20 01:53:00,
2013-04-19 22:08:00,56.2,55.0,29.73,SW,229,8.0,15.0,97,0.00,,,0.00,weatherlink.com 1.10,2013-04-20 02:08:00,
2013-04-19 22:23:00,56.1,55.0,29.73,SSW,208,5.0,18.0,97,0.00,,,0.00,weatherlink.com 1.10,2013-04-20 02:23:00,
2013-04-19 22:38:00,55.8,55.0,29.72,SW,236,5.0,18.0,97,0.00,,,0.00,weatherlink.com 1.10,2013-04-20 02:38:00,
2013-04-19 22:53:00,55.3,55.0,29.72,SSW,204,8.0,15.0,97,0.00,,,0.00,weatherlink.com 1.10,2013-04-20 02:53:00,
2013-04-19 23:08:00,55.0,54.0,29.71,South,183,4.0,11.0,97,0.00,,,0.00,weatherlink.com 1.10,2013-04-20 03:08:00,
2013-04-19 23:23:00,55.4,55.0,29.70,SSW,210,7.0,12.0,97,0.00,,,0.00,weatherlink.com 1.10,2013-04-20 03:23:00,
2013-04-19 23:38:00,55.5,55.0,29.70,SE,141,10.0,11.0,97,0.00,,,0.00,weatherlink.com 1.10,2013-04-20 03:38:00,
2013-04-19 23:53:00,55.4,55.0,29.70,SSE,153,8.0,16.0,98,0.00,,,0.00,weatherlink.com 1.10,2013-04-20 03:53:00,